createdAt,value
2018-12-09T00:01:46.865Z,729.60
2018-12-09T00:04:15.163Z,740.53
2018-12-09T00:06:44.428Z,752.58
2018-12-09T00:12:12.454Z,783.25
2018-12-09T00:14:40.759Z,769.97
2018-12-09T00:17:09.066Z,771.92
2018-12-09T00:19:37.448Z,759.50
2018-12-09T00:22:05.939Z,758.00
2018-12-09T00:24:34.256Z,757.95
2018-12-09T00:27:02.612Z,738.87
2018-12-09T00:29:30.961Z,748.25
2018-12-09T00:31:59.313Z,736.23
2018-12-09T00:34:27.644Z,752.75
2018-12-09T00:36:56.072Z,745.92
2018-12-09T00:39:24.384Z,739.48
2018-12-09T00:41:52.686Z,750.22
2018-12-09T00:44:21.026Z,746.48
2018-12-09T00:46:49.407Z,775.70
2018-12-09T00:49:17.697Z,751.00
2018-12-09T00:51:46.030Z,794.83
2018-12-09T00:54:14.390Z,761.63
2018-12-09T00:56:42.760Z,769.42
2018-12-09T00:59:11.088Z,773.60
2018-12-09T01:01:39.385Z,782.67
2018-12-09T01:04:07.678Z,779.05
2018-12-09T01:06:36.087Z,818.73
2018-12-09T01:09:05.329Z,834.73
2018-12-09T01:11:33.656Z,815.58
2018-12-09T01:14:02.069Z,768.65
2018-12-09T01:16:30.341Z,769.85
2018-12-09T01:18:58.655Z,756.95
2018-12-09T01:21:27.066Z,761.45
2018-12-09T01:23:55.473Z,763.25
2018-12-09T01:26:23.893Z,764.05
2018-12-09T01:31:50.505Z,772.55
2018-12-09T01:34:18.885Z,770.27
2018-12-09T01:36:47.225Z,765.62
2018-12-09T01:39:15.638Z,777.83
2018-12-09T01:41:44.385Z,781.58
2018-12-09T01:44:12.730Z,778.48
2018-12-09T01:46:41.069Z,787.33
2018-12-09T01:49:09.523Z,780.13
2018-12-09T01:51:37.812Z,780.83
2018-12-09T01:54:09.219Z,788.83
2018-12-09T01:56:38.868Z,787.15
2018-12-09T01:59:07.363Z,793.87
2018-12-09T02:01:36.418Z,793.50
2018-12-09T02:04:04.735Z,800.75
2018-12-09T02:06:33.637Z,794.88
2018-12-09T02:09:02.012Z,796.37
2018-12-09T02:11:30.332Z,784.13
2018-12-09T02:13:58.821Z,786.73
2018-12-09T02:16:27.242Z,774.75
2018-12-09T02:21:52.404Z,749.30
2018-12-09T02:24:21.541Z,760.02
2018-12-09T02:26:49.998Z,754.05
2018-12-09T02:29:18.607Z,746.00
2018-12-09T02:31:47.512Z,751.17
2018-12-09T02:34:15.957Z,744.67
2018-12-09T02:36:44.321Z,744.20
2018-12-09T02:39:13.036Z,747.98
2018-12-09T02:41:41.364Z,757.47
2018-12-09T02:45:45.438Z,761.02
2018-12-09T02:48:13.835Z,755.60
2018-12-09T02:50:43.094Z,744.02
2018-12-09T02:53:11.446Z,740.20
2018-12-09T02:55:39.782Z,726.65
2018-12-09T02:58:08.092Z,708.50
2018-12-09T03:00:36.482Z,713.75
2018-12-09T03:03:04.864Z,711.85
2018-12-09T03:05:34.260Z,709.33
2018-12-09T03:08:02.702Z,714.48
2018-12-09T03:10:30.981Z,725.85
2018-12-09T03:12:59.281Z,746.58
2018-12-09T03:15:28.157Z,740.35
2018-12-09T03:17:56.489Z,746.70
2018-12-09T03:20:24.874Z,755.37
2018-12-09T03:22:53.220Z,749.70
2018-12-09T03:25:21.539Z,756.65
2018-12-09T03:27:50.333Z,749.85
2018-12-09T03:30:18.684Z,779.12
2018-12-09T03:32:47.075Z,778.65
2018-12-09T03:35:16.313Z,813.75
2018-12-09T03:37:44.686Z,806.98
2018-12-09T03:40:13.109Z,823.60
2018-12-09T03:42:41.427Z,900.68
2018-12-09T03:45:09.881Z,851.45
2018-12-09T03:47:39.408Z,793.08
2018-12-09T03:50:08.015Z,815.15
2018-12-09T03:52:36.340Z,823.60
2018-12-09T03:55:05.322Z,822.02
2018-12-09T03:57:33.825Z,757.30
2018-12-09T04:00:02.336Z,785.63
2018-12-09T04:02:31.064Z,787.83
2018-12-09T04:05:00.306Z,775.75
2018-12-09T04:07:30.670Z,761.67
2018-12-09T04:09:59.154Z,770.80
2018-12-09T04:12:28.474Z,758.10
2018-12-09T04:14:56.790Z,779.00
2018-12-09T04:17:25.136Z,736.53
2018-12-09T04:19:53.472Z,751.53
2018-12-09T04:22:21.854Z,819.43
2018-12-09T04:24:50.639Z,869.33
2018-12-09T04:27:19.029Z,793.10
2018-12-09T04:29:47.345Z,793.87
2018-12-09T04:32:15.650Z,782.30
2018-12-09T04:34:46.038Z,758.60
2018-12-09T04:37:15.282Z,758.62
2018-12-09T04:39:44.527Z,767.48
2018-12-09T04:42:12.823Z,764.63
2018-12-09T04:44:41.249Z,756.20
2018-12-09T04:47:09.547Z,765.35
2018-12-09T04:49:38.785Z,814.77
2018-12-09T04:52:08.357Z,844.75
2018-12-09T04:54:37.976Z,828.82
2018-12-09T04:57:06.384Z,727.47
2018-12-09T04:59:36.884Z,716.00
2018-12-09T05:02:05.248Z,717.63
2018-12-09T05:04:34.406Z,712.17
2018-12-09T05:07:02.819Z,713.77
2018-12-09T05:09:32.186Z,718.08
2018-12-09T05:12:00.534Z,720.45
2018-12-09T05:14:28.939Z,736.00
2018-12-09T05:16:57.356Z,738.40
2018-12-09T05:19:25.737Z,743.35
2018-12-09T05:21:54.444Z,730.95
2018-12-09T05:24:23.033Z,742.03
2018-12-09T05:26:51.474Z,739.80
2018-12-09T05:29:20.784Z,744.55
2018-12-09T05:31:49.192Z,740.70
2018-12-09T05:34:17.506Z,745.60
2018-12-09T05:36:46.221Z,788.53
2018-12-09T05:39:14.628Z,759.15
2018-12-09T05:41:43.938Z,760.35
2018-12-09T05:44:13.725Z,787.27
2018-12-09T05:46:42.170Z,791.25
2018-12-09T05:49:10.482Z,720.88
2018-12-09T05:51:38.921Z,721.00
2018-12-09T05:54:07.312Z,722.98
2018-12-09T05:56:35.858Z,713.12
2018-12-09T05:59:04.173Z,724.50
2018-12-09T06:01:32.541Z,718.90
2018-12-09T06:04:00.873Z,709.90
2018-12-09T06:06:29.319Z,716.88
2018-12-09T06:08:58.043Z,717.53
2018-12-09T06:11:26.909Z,726.65
2018-12-09T06:13:55.220Z,737.12
2018-12-09T06:16:23.513Z,727.73
2018-12-09T06:18:51.899Z,728.33
2018-12-09T06:21:20.436Z,723.42
2018-12-09T06:23:48.753Z,748.42
2018-12-09T06:26:17.047Z,737.20
2018-12-09T06:28:45.463Z,740.15
2018-12-09T06:31:13.828Z,732.42
2018-12-09T06:33:42.172Z,727.20
2018-12-09T06:36:10.544Z,788.48
2018-12-09T06:38:38.941Z,756.30
2018-12-09T06:41:07.233Z,778.15
2018-12-09T06:43:35.557Z,699.35
2018-12-09T06:46:04.314Z,710.48
2018-12-09T06:48:32.705Z,731.85
2018-12-09T06:51:01.987Z,799.48
2018-12-09T06:53:30.382Z,849.75
2018-12-09T06:55:58.699Z,822.72
2018-12-09T06:58:27.081Z,835.52
2018-12-09T07:00:56.338Z,803.58
2018-12-09T07:03:24.641Z,746.05
2018-12-09T07:05:53.889Z,733.58
2018-12-09T07:08:22.222Z,882.10
2018-12-09T07:10:50.570Z,904.15
2018-12-09T07:13:19.862Z,840.62
2018-12-09T07:15:48.230Z,841.00
2018-12-09T07:18:16.553Z,767.27
2018-12-09T07:20:45.262Z,693.83
2018-12-09T07:23:13.773Z,709.10
2018-12-09T07:25:44.050Z,726.37
2018-12-09T07:28:12.399Z,734.27
2018-12-09T07:30:41.807Z,818.35
2018-12-09T07:33:10.517Z,807.05
2018-12-09T07:35:38.946Z,813.90
2018-12-09T07:38:07.293Z,792.90
2018-12-09T07:40:35.605Z,759.63
2018-12-09T07:43:04.026Z,824.77
2018-12-09T07:45:32.633Z,816.92
2018-12-09T07:48:00.940Z,837.88
2018-12-09T07:50:29.241Z,854.42
2018-12-09T07:52:58.728Z,883.17
2018-12-09T07:55:27.021Z,858.00
2018-12-09T08:00:54.047Z,830.67
2018-12-09T08:03:22.324Z,842.88
2018-12-09T08:05:51.244Z,859.45
2018-12-09T08:08:19.536Z,854.67
2018-12-09T08:10:47.921Z,813.05
2018-12-09T08:13:16.245Z,840.45
2018-12-09T08:15:44.551Z,759.63
2018-12-09T08:18:12.851Z,896.45
2018-12-09T08:20:41.630Z,826.92
2018-12-09T08:23:09.936Z,837.55
2018-12-09T08:25:38.264Z,802.55
2018-12-09T08:28:06.654Z,838.10
2018-12-09T08:30:35.022Z,833.15
2018-12-09T08:33:03.420Z,823.32
2018-12-09T08:35:31.762Z,817.87
2018-12-09T08:38:00.061Z,810.73
2018-12-09T08:40:28.389Z,811.22
2018-12-09T08:42:56.791Z,838.30
2018-12-09T08:45:25.102Z,833.83
2018-12-09T08:47:53.410Z,857.10
2018-12-09T08:50:21.720Z,825.98
2018-12-09T08:52:50.526Z,806.45
2018-12-09T08:55:18.968Z,821.27
2018-12-09T08:57:47.289Z,817.40
2018-12-09T09:00:15.629Z,839.35
2018-12-09T09:02:43.929Z,833.50
2018-12-09T09:05:12.230Z,832.45
2018-12-09T09:07:40.625Z,834.88
2018-12-09T09:10:08.970Z,830.57
2018-12-09T09:12:37.372Z,818.70
2018-12-09T09:15:36.578Z,836.15
2018-12-09T09:18:05.866Z,816.07
2018-12-09T09:20:35.095Z,802.63
2018-12-09T09:23:03.457Z,821.08
2018-12-09T09:25:31.776Z,822.50
2018-12-09T09:28:00.083Z,835.80
2018-12-09T09:30:28.405Z,815.95
2018-12-09T09:32:56.790Z,807.60
2018-12-09T09:35:25.158Z,809.52
2018-12-09T09:37:54.414Z,826.88
2018-12-09T09:40:22.733Z,824.42
2018-12-09T09:42:51.029Z,838.05
2018-12-09T09:45:20.259Z,814.60
2018-12-09T09:47:49.555Z,807.00
2018-12-09T09:50:17.863Z,820.85
2018-12-09T09:52:46.199Z,808.15
2018-12-09T09:55:14.555Z,802.40
2018-12-09T09:57:42.918Z,807.30
2018-12-09T10:00:11.224Z,819.75
2018-12-09T10:02:40.484Z,822.50
2018-12-09T10:05:08.764Z,830.33
2018-12-09T10:10:35.868Z,832.92
2018-12-09T10:13:04.321Z,819.50
2018-12-09T10:15:32.635Z,815.23
2018-12-09T10:18:02.687Z,819.52
2018-12-09T10:20:31.715Z,821.72
2018-12-09T10:23:00.020Z,834.85
2018-12-09T10:25:28.314Z,829.70
2018-12-09T10:27:56.629Z,844.90
2018-12-09T10:30:25.001Z,836.10
2018-12-09T10:32:53.321Z,839.93
2018-12-09T10:35:22.117Z,813.38
2018-12-09T10:37:50.413Z,828.10
2018-12-09T10:40:18.737Z,830.35
2018-12-09T10:42:47.137Z,823.75
2018-12-09T10:45:15.482Z,838.55
2018-12-09T10:47:43.787Z,757.90
2018-12-09T10:50:12.155Z,819.52
2018-12-09T10:52:40.453Z,815.57
2018-12-09T10:55:08.761Z,821.87
2018-12-09T10:57:37.079Z,824.50
2018-12-09T11:00:07.609Z,829.10
2018-12-09T11:02:35.996Z,821.67
2018-12-09T11:05:04.931Z,820.63
2018-12-09T11:07:33.283Z,831.33
2018-12-09T11:10:01.633Z,825.22
2018-12-09T11:12:29.972Z,819.82
2018-12-09T11:14:58.390Z,820.60
2018-12-09T11:17:27.306Z,821.63
2018-12-09T11:19:55.693Z,811.28
2018-12-09T11:22:24.042Z,820.53
2018-12-09T11:24:52.544Z,817.58
2018-12-09T11:27:20.851Z,809.80
2018-12-09T11:29:49.154Z,812.67
2018-12-09T11:32:17.522Z,823.58
2018-12-09T11:34:45.882Z,837.08
2018-12-09T11:37:14.205Z,831.40
2018-12-09T11:39:42.610Z,828.10
2018-12-09T11:42:10.993Z,811.22
2018-12-09T11:44:39.405Z,825.95
2018-12-09T11:47:07.738Z,836.77
2018-12-09T11:49:36.057Z,819.92
2018-12-09T11:52:04.345Z,836.35
2018-12-09T11:54:32.768Z,826.17
2018-12-09T11:57:01.963Z,805.60
2018-12-09T11:59:31.351Z,790.98
2018-12-09T12:01:59.781Z,809.92
2018-12-09T12:04:28.136Z,792.65
2018-12-09T12:06:56.643Z,804.25
2018-12-09T12:09:24.923Z,794.20
2018-12-09T12:11:53.455Z,809.15
2018-12-09T12:14:21.784Z,800.83
2018-12-09T12:16:50.086Z,808.23
2018-12-09T12:19:18.444Z,811.15
2018-12-09T12:21:46.847Z,798.63
2018-12-09T12:24:15.141Z,816.30
2018-12-09T12:26:43.435Z,815.27
2018-12-09T12:29:11.783Z,803.05
2018-12-09T12:31:40.148Z,813.00
2018-12-09T12:34:08.482Z,813.47
2018-12-09T12:36:36.907Z,821.27
2018-12-09T12:39:06.017Z,797.63
2018-12-09T12:41:34.423Z,823.37
2018-12-09T12:44:02.778Z,812.80
2018-12-09T12:46:31.118Z,819.40
2018-12-09T12:48:59.497Z,799.52
2018-12-09T12:51:27.825Z,797.77
2018-12-09T12:53:56.139Z,810.25
2018-12-09T12:56:24.488Z,833.60
2018-12-09T12:58:52.845Z,826.42
2018-12-09T13:01:22.050Z,823.17
2018-12-09T13:03:50.354Z,833.75
2018-12-09T13:06:19.175Z,832.98
2018-12-09T13:08:47.481Z,847.93
2018-12-09T13:11:15.794Z,861.40
2018-12-09T13:13:44.217Z,821.12
2018-12-09T13:16:12.518Z,842.40
2018-12-09T13:18:40.830Z,829.30
2018-12-09T13:21:09.233Z,826.00
2018-12-09T13:23:37.620Z,827.05
2018-12-09T13:26:06.121Z,843.40
2018-12-09T13:28:34.708Z,848.08
2018-12-09T13:31:03.977Z,848.08
2018-12-09T13:33:32.787Z,851.40
2018-12-09T13:36:02.459Z,820.63
2018-12-09T13:38:31.693Z,830.33
2018-12-09T13:41:00.090Z,815.25
2018-12-09T13:43:28.434Z,823.75
2018-12-09T13:45:56.753Z,830.70
2018-12-09T13:48:25.020Z,817.45
2018-12-09T13:50:54.306Z,781.47
2018-12-09T13:53:22.605Z,780.13
2018-12-09T13:55:50.894Z,795.65
2018-12-09T13:58:19.221Z,790.20
2018-12-09T14:00:47.546Z,790.88
2018-12-09T14:03:15.884Z,796.90
2018-12-09T14:05:45.704Z,792.35
2018-12-09T14:08:13.992Z,796.83
2018-12-09T14:10:42.298Z,790.98
2018-12-09T14:13:10.863Z,804.05
2018-12-09T14:15:39.409Z,798.67
2018-12-09T14:18:07.775Z,794.45
2018-12-09T14:20:36.165Z,796.97
2018-12-09T14:23:05.596Z,801.50
2018-12-09T14:25:34.854Z,805.30
2018-12-09T14:28:03.230Z,813.05
2018-12-09T14:30:32.449Z,816.17
2018-12-09T14:33:01.441Z,818.82
2018-12-09T14:35:29.861Z,816.53
2018-12-09T14:37:58.177Z,837.37
2018-12-09T14:40:27.066Z,839.07
2018-12-09T14:42:55.789Z,831.70
2018-12-09T14:45:24.102Z,838.80
2018-12-09T14:47:52.441Z,803.73
2018-12-09T14:50:20.779Z,823.95
2018-12-09T14:52:50.115Z,832.73
2018-12-09T14:55:18.435Z,838.38
2018-12-09T14:57:46.755Z,844.45
2018-12-09T15:00:15.266Z,848.05
2018-12-09T15:02:43.570Z,834.37
2018-12-09T15:05:11.990Z,829.33
2018-12-09T15:07:40.285Z,824.60
2018-12-09T15:10:09.101Z,824.65
2018-12-09T15:12:37.725Z,812.52
2018-12-09T15:15:06.289Z,802.05
2018-12-09T15:17:35.610Z,808.47
2018-12-09T15:20:05.137Z,820.30
2018-12-09T15:22:33.508Z,821.23
2018-12-09T15:25:01.942Z,831.78
2018-12-09T15:27:30.235Z,823.53
2018-12-09T15:29:58.661Z,838.23
2018-12-09T15:32:26.978Z,830.93
2018-12-09T15:34:55.277Z,836.52
2018-12-09T15:37:23.593Z,835.62
2018-12-09T15:39:51.909Z,840.40
2018-12-09T15:42:20.215Z,831.42
2018-12-09T15:44:49.436Z,826.30
2018-12-09T15:47:17.748Z,827.40
2018-12-09T15:49:46.157Z,825.45
2018-12-09T15:52:14.522Z,830.38
2018-12-09T15:54:42.847Z,813.70
2018-12-09T15:57:11.218Z,807.32
2018-12-09T15:59:39.620Z,805.80
2018-12-09T16:02:07.982Z,819.45
2018-12-09T16:04:36.295Z,812.23
2018-12-09T16:07:04.608Z,808.68
2018-12-09T16:09:32.935Z,808.87
2018-12-09T16:12:01.311Z,817.37
2018-12-09T16:14:29.641Z,818.82
2018-12-09T16:16:58.843Z,818.10
2018-12-09T16:19:27.245Z,819.17
2018-12-09T16:21:55.567Z,817.45
2018-12-09T16:24:23.876Z,808.00
2018-12-09T16:26:52.260Z,811.13
2018-12-09T16:29:20.660Z,829.78
2018-12-09T16:31:48.941Z,833.58
2018-12-09T16:34:17.288Z,823.38
2018-12-09T16:36:45.737Z,799.42
2018-12-09T16:39:14.102Z,807.20
2018-12-09T16:41:42.471Z,801.80
2018-12-09T16:44:10.763Z,788.00
2018-12-09T16:46:39.068Z,784.83
2018-12-09T16:49:07.524Z,794.00
2018-12-09T16:51:35.905Z,793.87
2018-12-09T16:54:04.946Z,800.60
2018-12-09T16:56:33.247Z,796.00
2018-12-09T16:59:01.665Z,800.13
2018-12-09T17:01:31.907Z,797.45
2018-12-09T17:04:00.267Z,794.17
2018-12-09T17:06:28.626Z,779.17
2018-12-09T17:08:57.043Z,781.55
2018-12-09T17:11:25.353Z,796.35
2018-12-09T17:13:53.637Z,774.62
2018-12-09T17:16:22.965Z,776.33
2018-12-09T17:18:51.390Z,785.48
2018-12-09T17:21:19.963Z,781.07
2018-12-09T17:23:48.331Z,786.30
2018-12-09T17:26:17.226Z,795.70
2018-12-09T17:28:45.536Z,808.30
2018-12-09T17:31:13.934Z,829.43
2018-12-09T17:36:39.017Z,842.62
2018-12-09T17:39:07.381Z,841.35
2018-12-09T17:41:35.800Z,839.58
2018-12-09T17:44:04.162Z,829.33
2018-12-09T17:46:32.524Z,830.15
2018-12-09T17:49:00.822Z,833.92
2018-12-09T17:51:29.175Z,860.22
2018-12-09T17:53:57.537Z,854.18
2018-12-09T17:56:25.911Z,681.50
2018-12-09T17:58:54.259Z,684.30
2018-12-09T18:01:23.515Z,690.08
2018-12-09T18:03:52.708Z,693.65
2018-12-09T18:06:21.040Z,693.85
2018-12-09T18:08:50.253Z,678.98
2018-12-09T18:11:18.674Z,701.00
2018-12-09T18:13:47.003Z,694.05
2018-12-09T18:16:15.421Z,715.65
2018-12-09T18:18:43.779Z,695.52
2018-12-09T18:21:12.140Z,692.60
2018-12-09T18:23:40.457Z,690.55
2018-12-09T18:26:08.745Z,693.30
2018-12-09T18:28:37.133Z,697.20
2018-12-09T18:31:05.433Z,693.23
2018-12-09T18:33:34.049Z,693.65
2018-12-09T18:36:02.371Z,699.25
2018-12-09T18:38:30.805Z,690.77
2018-12-09T18:40:59.326Z,692.48
2018-12-09T18:43:27.662Z,688.58
2018-12-09T18:45:56.881Z,704.30
2018-12-09T18:48:25.167Z,693.95
2018-12-09T18:50:53.522Z,695.10
2018-12-09T18:53:21.872Z,702.80
2018-12-09T18:55:50.253Z,690.90
2018-12-09T18:58:18.625Z,688.72
2018-12-09T19:00:47.861Z,706.00
2018-12-09T19:03:17.183Z,705.33
2018-12-09T19:05:45.809Z,700.48
2018-12-09T19:08:14.228Z,706.00
2018-12-09T19:10:42.549Z,688.77
2018-12-09T19:13:10.923Z,711.23
2018-12-09T19:15:39.228Z,728.67
2018-12-09T19:18:07.567Z,702.50
2018-12-09T19:20:35.878Z,709.55
2018-12-09T19:23:04.146Z,701.00
2018-12-09T19:25:32.494Z,693.52
2018-12-09T19:28:01.315Z,689.83
2018-12-09T19:30:30.307Z,696.30
2018-12-09T19:32:58.699Z,700.45
2018-12-09T19:35:27.045Z,705.05
2018-12-09T19:37:55.329Z,731.13
2018-12-09T19:40:23.724Z,701.92
2018-12-09T19:42:52.952Z,721.83
2018-12-09T19:45:21.342Z,700.67
2018-12-09T19:47:49.633Z,711.10
2018-12-09T19:50:18.071Z,705.67
2018-12-09T19:52:46.411Z,695.88
2018-12-09T19:55:14.848Z,695.88
2018-12-09T19:57:45.128Z,693.40
2018-12-09T20:00:13.469Z,693.87
2018-12-09T20:02:41.750Z,668.70
2018-12-09T20:05:10.073Z,698.78
2018-12-09T20:07:38.380Z,692.65
2018-12-09T20:10:07.464Z,679.83
2018-12-09T20:12:35.777Z,699.00
2018-12-09T20:15:04.955Z,689.17
2018-12-09T20:17:33.273Z,686.35
2018-12-09T20:20:02.065Z,689.75
2018-12-09T20:22:30.460Z,688.70
2018-12-09T20:24:58.793Z,684.73
2018-12-09T20:27:27.987Z,688.72
2018-12-09T20:29:57.325Z,701.65
2018-12-09T20:32:26.569Z,690.83
2018-12-09T20:34:55.795Z,684.90
2018-12-09T20:37:24.118Z,685.02
2018-12-09T20:39:52.437Z,688.72
2018-12-09T20:42:20.806Z,700.15
2018-12-09T20:44:50.032Z,704.20
2018-12-09T20:47:18.342Z,710.02
2018-12-09T20:49:47.582Z,702.80
2018-12-09T20:52:15.874Z,703.90
2018-12-09T20:54:44.221Z,705.13
2018-12-09T20:57:12.499Z,713.05
2018-12-09T20:59:40.811Z,706.30
2018-12-09T21:02:09.123Z,709.52
2018-12-09T21:04:37.479Z,681.50
2018-12-09T21:07:05.910Z,683.50
2018-12-09T21:09:34.206Z,673.45
2018-12-09T21:12:02.630Z,659.73
2018-12-09T21:14:30.987Z,662.85
2018-12-09T21:16:59.289Z,663.63
2018-12-09T21:19:27.615Z,650.62
2018-12-09T21:21:55.951Z,645.40
2018-12-09T21:24:25.910Z,664.50
2018-12-09T21:29:52.926Z,658.93
2018-12-09T21:32:21.223Z,658.50
2018-12-09T21:34:49.675Z,665.63
2018-12-09T21:37:18.041Z,662.80
2018-12-09T21:39:46.367Z,658.40
2018-12-09T21:42:14.835Z,656.00
2018-12-09T21:44:43.144Z,657.00
2018-12-09T21:47:12.080Z,679.30
2018-12-09T21:49:40.395Z,673.17
2018-12-09T21:52:08.680Z,659.50
2018-12-09T21:54:37.017Z,666.25
2018-12-09T21:57:05.323Z,666.40
2018-12-09T21:59:33.619Z,668.92
2018-12-09T22:02:02.039Z,649.62
2018-12-09T22:04:30.359Z,650.65
2018-12-09T22:06:58.674Z,651.52
2018-12-09T22:09:27.096Z,637.58
2018-12-09T22:11:55.429Z,648.28
2018-12-09T22:14:23.799Z,646.77
2018-12-09T22:16:52.177Z,662.72
2018-12-09T22:19:20.564Z,649.60
2018-12-09T22:21:49.354Z,652.90
2018-12-09T22:24:17.734Z,647.17
2018-12-09T22:26:46.034Z,646.80
2018-12-09T22:29:14.448Z,627.80
2018-12-09T22:31:42.786Z,623.17
2018-12-09T22:34:11.119Z,633.55
2018-12-09T22:36:39.449Z,648.28
2018-12-09T22:39:07.799Z,674.77
2018-12-09T22:41:37.030Z,671.60
2018-12-09T22:44:05.311Z,653.70
2018-12-09T22:46:34.534Z,643.75
2018-12-09T22:49:02.962Z,639.35
2018-12-09T22:51:32.249Z,636.67
2018-12-09T22:54:00.604Z,649.90
2018-12-09T22:56:28.936Z,645.70
2018-12-09T22:58:57.369Z,656.35
2018-12-09T23:01:25.847Z,638.48
2018-12-09T23:03:54.627Z,631.60
2018-12-09T23:06:23.284Z,634.95
2018-12-09T23:08:51.573Z,638.27
2018-12-09T23:11:19.894Z,635.17
2018-12-09T23:13:48.175Z,633.67
2018-12-09T23:16:16.626Z,639.25
2018-12-09T23:18:44.992Z,634.87
2018-12-09T23:21:13.290Z,624.62
2018-12-09T23:23:41.653Z,629.77
2018-12-09T23:26:09.967Z,632.12
2018-12-09T23:28:38.327Z,630.70
2018-12-09T23:31:06.630Z,632.92
2018-12-09T23:33:35.075Z,634.98
2018-12-09T23:36:03.560Z,639.35
2018-12-09T23:38:31.934Z,634.00
2018-12-09T23:41:00.303Z,638.10
2018-12-09T23:43:28.812Z,635.85
2018-12-09T23:45:57.170Z,633.60
2018-12-09T23:48:25.498Z,641.65
2018-12-09T23:50:53.811Z,637.98
2018-12-09T23:53:22.109Z,637.17
2018-12-09T23:55:50.448Z,642.92
2018-12-09T23:58:19.837Z,630.15
